createdAt,value
2022-10-11T00:01:00.918Z,19035.53
2022-10-11T00:03:29.067Z,19021.31
2022-10-11T00:05:57.193Z,19066.00
2022-10-11T00:08:25.333Z,19007.06
2022-10-11T00:11:01.732Z,18990.81
2022-10-11T00:13:31.411Z,18998.94
2022-10-11T00:16:00.060Z,18992.84
2022-10-11T00:18:28.415Z,18950.19
2022-10-11T00:21:04.569Z,18966.44
2022-10-11T00:23:33.162Z,18940.03
2022-10-11T00:26:05.084Z,18972.53
2022-10-11T00:28:35.276Z,18942.06
2022-10-11T00:31:07.512Z,18942.06
2022-10-11T00:33:36.068Z,18923.78
2022-10-11T00:36:04.852Z,18972.53
2022-10-11T00:38:33.245Z,18980.66
2022-10-11T00:41:01.874Z,18992.84
2022-10-11T00:43:33.981Z,18954.25
2022-10-11T00:46:32.040Z,18990.81
2022-10-11T00:49:07.364Z,19053.81
2022-10-11T00:51:49.973Z,19051.78
2022-10-11T00:54:25.254Z,19084.28
2022-10-11T00:56:59.457Z,19021.31
2022-10-11T00:59:36.615Z,18984.72
2022-10-11T01:02:05.815Z,18964.41
2022-10-11T01:04:34.924Z,18897.34
2022-10-11T01:07:03.986Z,18850.63
2022-10-11T01:09:32.582Z,18933.94
2022-10-11T01:12:04.681Z,18877.03
2022-10-11T01:15:06.752Z,18885.16
2022-10-11T01:17:50.661Z,18860.78
2022-10-11T01:20:44.449Z,18897.34
2022-10-11T01:24:20.115Z,18860.78
2022-10-11T01:27:48.636Z,18803.88
2022-10-11T01:30:26.067Z,18834.38
2022-10-11T01:33:19.645Z,18854.69
2022-10-11T01:35:58.327Z,18858.75
2022-10-11T01:38:36.735Z,18885.16
2022-10-11T01:41:12.093Z,18824.22
2022-10-11T01:43:43.008Z,18795.75
2022-10-11T01:46:13.495Z,18773.41
2022-10-11T01:48:52.995Z,18753.09
2022-10-11T01:51:24.264Z,18720.59
2022-10-11T01:54:25.833Z,18686.03
2022-10-11T01:57:28.436Z,18661.66
2022-10-11T02:00:05.161Z,18688.06
2022-10-11T02:03:03.228Z,18671.81
2022-10-11T02:05:40.199Z,18661.66
2022-10-11T02:08:20.018Z,18649.47
2022-10-11T02:10:55.567Z,18629.16
2022-10-11T02:13:34.390Z,18608.84
2022-10-11T02:16:09.370Z,18590.56
2022-10-11T02:18:46.631Z,18584.47
2022-10-11T02:21:20.263Z,18535.69
2022-10-11T02:23:54.737Z,18553.97
2022-10-11T02:26:25.841Z,18558.03
2022-10-11T02:29:00.374Z,18537.72
2022-10-11T02:31:31.666Z,18535.69
2022-10-11T02:34:10.677Z,18513.34
2022-10-11T02:36:48.707Z,18517.41
2022-10-11T02:39:25.547Z,18482.88
2022-10-11T02:41:58.880Z,18493.03
2022-10-11T02:44:37.712Z,18478.81
2022-10-11T02:47:06.859Z,18452.41
2022-10-11T02:49:37.085Z,18444.28
2022-10-11T02:52:07.772Z,18454.44
2022-10-11T02:54:35.926Z,18436.16
2022-10-11T02:57:04.061Z,18415.81
2022-10-11T02:59:32.037Z,18432.09
2022-10-11T03:02:00.061Z,18393.47
2022-10-11T03:04:28.182Z,18409.72
2022-10-11T03:06:57.511Z,18419.88
2022-10-11T03:09:25.566Z,18385.34
2022-10-11T03:11:53.540Z,18369.09
2022-10-11T03:14:21.539Z,18387.38
2022-10-11T03:16:51.554Z,18369.09
2022-10-11T03:19:19.738Z,18334.56
2022-10-11T03:21:47.837Z,18346.75
2022-10-11T03:24:17.215Z,18320.34
2022-10-11T03:26:45.574Z,18324.41
2022-10-11T03:29:13.686Z,18332.53
2022-10-11T03:31:41.689Z,18312.22
2022-10-11T03:34:10.533Z,18320.34
2022-10-11T03:36:38.552Z,18334.56
2022-10-11T03:39:06.591Z,18334.56
2022-10-11T03:41:36.083Z,18320.34
2022-10-11T03:44:04.219Z,18314.25
2022-10-11T03:46:32.228Z,18275.66
2022-10-11T03:49:00.283Z,18314.25
2022-10-11T03:51:28.404Z,18289.88
2022-10-11T03:53:56.409Z,18283.78
2022-10-11T03:56:24.758Z,18271.59
2022-10-11T03:58:54.115Z,18255.34
2022-10-11T04:01:22.143Z,18255.34
2022-10-11T04:03:50.165Z,18226.88
2022-10-11T04:06:18.173Z,18243.16
2022-10-11T04:08:46.131Z,18253.31
2022-10-11T04:11:14.141Z,18259.41
2022-10-11T04:13:42.108Z,18241.13
2022-10-11T04:16:11.498Z,18226.88
2022-10-11T04:18:39.936Z,18206.56
2022-10-11T04:21:08.022Z,18235.00
2022-10-11T04:23:36.059Z,18237.06
2022-10-11T04:26:07.727Z,18220.78
2022-10-11T04:28:36.810Z,18253.31
2022-10-11T04:31:06.566Z,18226.88
2022-10-11T04:33:35.987Z,18214.69
2022-10-11T04:36:04.670Z,18204.53
2022-10-11T04:38:32.897Z,18184.22
2022-10-11T04:41:08.522Z,18180.16
2022-10-11T04:43:36.900Z,18182.19
2022-10-11T04:46:06.032Z,18188.28
2022-10-11T04:48:36.632Z,18182.19
2022-10-11T04:51:05.351Z,18174.06
2022-10-11T04:53:33.390Z,18155.78
2022-10-11T04:56:04.925Z,18178.13
2022-10-11T04:58:35.117Z,18155.78
2022-10-11T05:01:03.416Z,18174.06
2022-10-11T05:03:31.901Z,18139.53
2022-10-11T05:06:05.714Z,18141.56
2022-10-11T05:08:34.241Z,18147.66
2022-10-11T05:11:05.278Z,18159.84
2022-10-11T05:13:35.267Z,18137.50
2022-10-11T05:16:08.447Z,18133.44
2022-10-11T05:18:39.692Z,18139.53
2022-10-11T05:21:16.831Z,18113.13
2022-10-11T05:23:46.408Z,18080.63
2022-10-11T05:26:15.017Z,18094.84
2022-10-11T05:28:43.715Z,18123.28
2022-10-11T05:31:12.269Z,18131.41
2022-10-11T05:33:40.602Z,18111.09
2022-10-11T05:36:10.723Z,18135.47
2022-10-11T05:38:39.261Z,18145.63
2022-10-11T05:41:09.081Z,18105.00
2022-10-11T05:43:37.143Z,18149.69
2022-10-11T05:46:05.783Z,18141.56
2022-10-11T05:48:34.353Z,18111.09
2022-10-11T05:51:03.464Z,18139.53
2022-10-11T05:53:33.422Z,18113.13
2022-10-11T05:56:01.717Z,18141.56
2022-10-11T05:58:31.146Z,18098.91
2022-10-11T06:00:59.203Z,18119.22
2022-10-11T06:03:27.745Z,18082.66
2022-10-11T06:06:03.290Z,18100.94
2022-10-11T06:08:33.652Z,18102.97
2022-10-11T06:11:13.145Z,18098.91
2022-10-11T06:13:42.113Z,18127.34
2022-10-11T06:16:10.811Z,18139.53
2022-10-11T06:18:38.993Z,18111.09
2022-10-11T06:21:07.772Z,18127.34
2022-10-11T06:23:37.165Z,18115.16
2022-10-11T06:26:09.352Z,18147.66
2022-10-11T06:28:38.686Z,18178.13
2022-10-11T06:31:08.306Z,18172.03
2022-10-11T06:33:37.543Z,18182.19
2022-10-11T06:36:09.668Z,18208.59
2022-10-11T06:38:44.558Z,18196.41
2022-10-11T06:41:17.656Z,18228.91
2022-10-11T06:43:46.441Z,18220.78
2022-10-11T06:46:14.614Z,18245.19
2022-10-11T06:48:44.677Z,18257.38
2022-10-11T06:51:12.960Z,18302.06
2022-10-11T06:53:43.007Z,18285.81
2022-10-11T06:56:13.925Z,18314.25
2022-10-11T06:58:42.165Z,18326.44
2022-10-11T07:01:13.705Z,18369.09
2022-10-11T07:03:41.769Z,18365.03
2022-10-11T07:06:13.293Z,18379.25
2022-10-11T07:08:42.963Z,18460.53
2022-10-11T07:11:13.853Z,18454.44
2022-10-11T07:13:42.771Z,18511.31
2022-10-11T07:16:13.659Z,18529.59
2022-10-11T07:18:42.313Z,18558.03
2022-10-11T07:21:13.210Z,18592.59
2022-10-11T07:23:43.567Z,18604.78
2022-10-11T07:26:12.480Z,18651.50
2022-10-11T07:28:42.157Z,18639.31
2022-10-11T07:31:14.195Z,18688.06
2022-10-11T07:33:42.678Z,18755.13
2022-10-11T07:36:12.106Z,18730.75
2022-10-11T07:38:43.022Z,18747.00
2022-10-11T07:41:11.562Z,18785.59
2022-10-11T07:43:39.939Z,18848.59
2022-10-11T07:46:09.095Z,18862.81
2022-10-11T07:48:39.015Z,18889.22
2022-10-11T07:51:11.143Z,18994.88
2022-10-11T07:53:45.412Z,18976.59
2022-10-11T07:56:16.209Z,19035.53
2022-10-11T07:58:44.932Z,19066.00
2022-10-11T08:01:14.599Z,19129.00
2022-10-11T08:03:42.700Z,19157.44
2022-10-11T08:06:14.596Z,19202.16
2022-10-11T08:08:44.216Z,19305.78
2022-10-11T08:11:20.784Z,19309.84
2022-10-11T08:13:48.771Z,19356.59
2022-10-11T08:16:17.431Z,19330.16
2022-10-11T08:18:45.894Z,19395.19
2022-10-11T08:21:17.295Z,19415.50
2022-10-11T08:23:47.137Z,19460.22
2022-10-11T08:26:15.499Z,19474.44
2022-10-11T08:28:43.601Z,19533.38
2022-10-11T08:31:15.439Z,19602.47
2022-10-11T08:33:44.110Z,19637.03
2022-10-11T08:36:13.445Z,19720.34
2022-10-11T08:38:42.262Z,19793.50
2022-10-11T08:41:28.599Z,19787.41
2022-10-11T08:44:21.342Z,19836.19
2022-10-11T08:47:00.997Z,19889.03
2022-10-11T08:49:34.271Z,19850.41
2022-10-11T08:52:07.395Z,19878.88
2022-10-11T08:54:47.754Z,19907.31
2022-10-11T08:57:21.891Z,19911.41
2022-10-11T08:59:57.274Z,19905.28
2022-10-11T09:03:06.493Z,20037.41
2022-10-11T09:05:36.506Z,20086.19
2022-10-11T09:08:19.841Z,20078.06
2022-10-11T09:11:13.798Z,20134.97
2022-10-11T09:14:15.145Z,20096.34
2022-10-11T09:17:01.106Z,20155.28
2022-10-11T09:19:57.214Z,20132.94
2022-10-11T09:22:42.491Z,20214.22
2022-10-11T09:25:24.741Z,20234.56
2022-10-11T09:28:11.764Z,20256.91
2022-10-11T09:30:48.545Z,20315.88
2022-10-11T09:33:21.993Z,20326.03
2022-10-11T09:35:53.464Z,20358.56
2022-10-11T09:38:42.032Z,20315.88
2022-10-11T09:41:19.345Z,20334.16
2022-10-11T09:43:50.559Z,20271.16
2022-10-11T09:46:32.623Z,20267.09
2022-10-11T09:49:04.069Z,20307.72
2022-10-11T09:51:33.760Z,20252.84
2022-10-11T09:54:05.254Z,20220.34
2022-10-11T09:56:41.162Z,20165.44
2022-10-11T09:59:28.341Z,20128.88
2022-10-11T10:02:21.911Z,20134.97
2022-10-11T10:05:04.216Z,20104.47
2022-10-11T10:07:35.500Z,20076.03
2022-10-11T10:10:30.954Z,20094.31
2022-10-11T10:13:02.423Z,20120.75
2022-10-11T10:15:32.543Z,20155.28
2022-10-11T10:18:02.988Z,20240.66
2022-10-11T10:20:34.505Z,20336.19
2022-10-11T10:23:10.870Z,20401.22
2022-10-11T10:25:43.478Z,20496.78
2022-10-11T10:28:23.832Z,20490.66
2022-10-11T10:30:55.295Z,20488.63
2022-10-11T10:33:28.062Z,20460.19
2022-10-11T10:36:04.196Z,20421.56
2022-10-11T10:38:40.334Z,20456.13
2022-10-11T10:41:13.829Z,20415.47
2022-10-11T10:43:46.444Z,20456.13
2022-10-11T10:46:48.440Z,20374.81
2022-10-11T10:49:53.786Z,20356.50
2022-10-11T10:52:48.942Z,20336.19
2022-10-11T10:55:35.493Z,20330.09
2022-10-11T10:58:18.918Z,20299.59
2022-10-11T11:00:50.624Z,20356.50
2022-10-11T11:03:28.968Z,20362.63
2022-10-11T11:06:04.323Z,20358.56
2022-10-11T11:08:53.321Z,20366.69
2022-10-11T11:11:40.817Z,20391.06
2022-10-11T11:14:28.795Z,20466.28
2022-10-11T11:17:07.079Z,20523.19
2022-10-11T11:19:54.574Z,20569.94
2022-10-11T11:22:44.295Z,20614.66
2022-10-11T11:25:28.199Z,20700.03
2022-10-11T11:28:15.505Z,20765.09
2022-10-11T11:30:57.750Z,20803.72
2022-10-11T11:33:48.468Z,20805.75
2022-10-11T11:36:28.682Z,20844.38
2022-10-11T11:39:03.350Z,20929.75
2022-10-11T11:41:38.645Z,20946.03
2022-10-11T11:44:15.538Z,20994.81
2022-10-11T11:46:51.087Z,20982.63
2022-10-11T11:49:25.862Z,21023.28
2022-10-11T11:51:55.956Z,21002.94
2022-10-11T11:54:43.282Z,20988.72
2022-10-11T11:57:31.543Z,20832.19
2022-10-11T12:00:07.729Z,20771.19
2022-10-11T12:02:52.570Z,20639.06
2022-10-11T12:05:25.016Z,20553.69
2022-10-11T12:08:00.622Z,20517.09
2022-10-11T12:10:39.531Z,20519.13
2022-10-11T12:13:18.572Z,20496.78
2022-10-11T12:16:11.761Z,20500.84
2022-10-11T12:18:55.165Z,20484.56
2022-10-11T12:21:31.779Z,20431.72
2022-10-11T12:24:01.615Z,20535.41
2022-10-11T12:26:44.544Z,20787.47
2022-10-11T12:29:52.105Z,20891.13
2022-10-11T12:32:54.847Z,20842.34
2022-10-11T12:36:01.417Z,20763.06
2022-10-11T12:38:34.771Z,20742.75
2022-10-11T12:41:50.723Z,20665.50
2022-10-11T12:44:26.239Z,20586.22
2022-10-11T12:47:31.081Z,20561.81
2022-10-11T12:50:16.946Z,20488.63
2022-10-11T12:53:00.860Z,20492.72
2022-10-11T12:55:48.506Z,20460.19
2022-10-11T12:58:31.062Z,20511.00
2022-10-11T13:01:23.111Z,20486.59
2022-10-11T13:04:04.965Z,20496.78
2022-10-11T13:06:38.170Z,20555.72
2022-10-11T13:09:18.847Z,20569.94
2022-10-11T13:11:53.369Z,20578.09
2022-10-11T13:14:26.341Z,20663.47
2022-10-11T13:17:08.686Z,20651.25
2022-10-11T13:22:20.052Z,20728.50
2022-10-11T13:24:48.120Z,20726.47
2022-10-11T13:27:22.709Z,20728.50
2022-10-11T13:29:56.225Z,20750.88
2022-10-11T13:32:28.299Z,20744.78
2022-10-11T13:35:03.893Z,20809.81
2022-10-11T13:37:42.081Z,20754.94
2022-10-11T13:40:15.679Z,20793.56
2022-10-11T13:42:45.129Z,20775.25
2022-10-11T13:45:17.936Z,20830.16
2022-10-11T13:47:48.873Z,20773.22
2022-10-11T13:50:31.617Z,20756.97
2022-10-11T13:53:02.939Z,20832.19
2022-10-11T13:55:34.845Z,20834.22
2022-10-11T13:58:17.662Z,20824.06
2022-10-11T14:00:56.989Z,20820.00
2022-10-11T14:03:36.975Z,20820.00
2022-10-11T14:06:05.782Z,20769.16
2022-10-11T14:08:40.365Z,20728.50
2022-10-11T14:11:10.219Z,20722.41
2022-10-11T14:13:40.700Z,20783.41
2022-10-11T14:16:13.973Z,20748.84
2022-10-11T14:18:49.848Z,20736.63
2022-10-11T14:21:32.022Z,20687.84
2022-10-11T14:24:04.874Z,20706.16
2022-10-11T14:26:36.915Z,20653.28
2022-10-11T14:29:09.697Z,20628.91
2022-10-11T14:31:42.030Z,20659.38
2022-10-11T14:34:20.052Z,20679.72
2022-10-11T14:36:50.836Z,20667.53
2022-10-11T14:39:21.377Z,20606.53
2022-10-11T14:41:52.164Z,20571.97
2022-10-11T14:44:21.641Z,20539.47
2022-10-11T14:46:54.790Z,20502.88
2022-10-11T14:49:26.156Z,20525.22
2022-10-11T14:51:57.028Z,20435.78
2022-10-11T14:54:27.802Z,20439.84
2022-10-11T14:56:59.400Z,20405.31
2022-10-11T14:59:32.412Z,20374.81
2022-10-11T15:02:02.117Z,20374.81
2022-10-11T15:04:30.419Z,20391.06
2022-10-11T15:07:00.332Z,20309.75
2022-10-11T15:09:28.275Z,20301.63
2022-10-11T15:11:56.847Z,20307.72
2022-10-11T15:14:25.886Z,20260.97
2022-10-11T15:16:55.967Z,20246.75
2022-10-11T15:19:26.584Z,20210.16
2022-10-11T15:21:54.534Z,20220.34
2022-10-11T15:24:22.522Z,20258.94
2022-10-11T15:26:50.700Z,20200.00
2022-10-11T15:29:20.344Z,20189.84
2022-10-11T15:31:49.183Z,20173.59
2022-10-11T15:34:17.594Z,20179.69
2022-10-11T15:36:47.155Z,20177.66
2022-10-11T15:39:27.413Z,20120.75
2022-10-11T15:41:55.516Z,20155.28
2022-10-11T15:44:23.578Z,20145.13
2022-10-11T15:46:51.698Z,20137.00
2022-10-11T15:49:19.670Z,20130.91
2022-10-11T15:51:48.938Z,20118.69
2022-10-11T15:54:16.879Z,20100.41
2022-10-11T15:56:44.759Z,20041.47
2022-10-11T15:59:12.732Z,20039.44
2022-10-11T16:01:41.018Z,20035.38
2022-10-11T16:04:09.116Z,20013.00
2022-10-11T16:06:37.037Z,20006.91
2022-10-11T16:09:06.612Z,19978.47
2022-10-11T16:11:34.539Z,19960.16
2022-10-11T16:14:02.568Z,19960.16
2022-10-11T16:16:30.487Z,19945.94
2022-10-11T16:18:58.430Z,19915.47
2022-10-11T16:21:26.374Z,19905.28
2022-10-11T16:23:54.329Z,19852.44
2022-10-11T16:26:23.588Z,19801.66
2022-10-11T16:28:51.635Z,19805.72
2022-10-11T16:31:20.940Z,19740.69
2022-10-11T16:33:50.157Z,19718.31
2022-10-11T16:36:35.936Z,19677.66
2022-10-11T16:39:09.623Z,19624.84
2022-10-11T16:41:39.522Z,19588.25
2022-10-11T16:44:08.832Z,19506.97
2022-10-11T16:46:36.756Z,19504.94
2022-10-11T16:49:05.727Z,19472.41
2022-10-11T16:51:34.092Z,19454.13
2022-10-11T16:54:02.480Z,19446.00
2022-10-11T16:56:32.518Z,19429.75
2022-10-11T16:59:04.040Z,19431.78
2022-10-11T17:01:32.150Z,19482.56
2022-10-11T17:04:00.464Z,19429.75
2022-10-11T17:06:28.499Z,19472.41
2022-10-11T17:08:58.072Z,19509.00
2022-10-11T17:11:26.110Z,19535.41
2022-10-11T17:13:54.664Z,19464.28
2022-10-11T17:16:24.561Z,19431.78
2022-10-11T17:18:53.006Z,19370.81
2022-10-11T17:21:22.833Z,19336.25
2022-10-11T17:23:51.442Z,19285.47
2022-10-11T17:26:23.254Z,19263.09
2022-10-11T17:28:51.547Z,19236.69
2022-10-11T17:31:19.968Z,19204.19
2022-10-11T17:33:49.577Z,19200.13
2022-10-11T17:36:23.916Z,19196.06
2022-10-11T17:38:53.169Z,19143.22
2022-10-11T17:41:21.745Z,19216.38
2022-10-11T17:43:49.788Z,19224.50
2022-10-11T17:46:19.333Z,19192.00
2022-10-11T17:48:48.620Z,19222.47
2022-10-11T17:51:19.917Z,19234.66
2022-10-11T17:53:50.711Z,19214.34
2022-10-11T17:56:27.790Z,19159.47
2022-10-11T17:58:58.824Z,19098.50
2022-10-11T18:01:29.815Z,19141.19
2022-10-11T18:04:01.554Z,19212.31
2022-10-11T18:06:33.451Z,19157.44
2022-10-11T18:09:04.017Z,19108.69
2022-10-11T18:11:32.953Z,19045.69
2022-10-11T18:14:01.498Z,19017.25
2022-10-11T18:16:31.231Z,19017.25
2022-10-11T18:19:03.148Z,18984.72
2022-10-11T18:21:34.550Z,18948.16
2022-10-11T18:24:06.168Z,18966.44
2022-10-11T18:26:34.995Z,19003.00
2022-10-11T18:29:03.289Z,18996.91
2022-10-11T18:31:33.673Z,18966.44
2022-10-11T18:34:03.588Z,18950.19
2022-10-11T18:36:33.192Z,18980.66
2022-10-11T18:39:04.402Z,19043.66
2022-10-11T18:41:35.213Z,19029.44
2022-10-11T18:44:06.700Z,19015.19
2022-10-11T18:46:35.525Z,19005.03
2022-10-11T18:49:05.090Z,18994.88
2022-10-11T18:51:36.310Z,18982.69
2022-10-11T18:54:05.958Z,18966.44
2022-10-11T18:56:36.852Z,18964.41
2022-10-11T18:59:05.972Z,18921.75
2022-10-11T19:01:37.997Z,18917.66
2022-10-11T19:04:10.458Z,18887.19
2022-10-11T19:06:42.917Z,18901.41
2022-10-11T19:09:14.140Z,18889.22
2022-10-11T19:11:42.908Z,18868.91
2022-10-11T19:14:14.678Z,18903.44
2022-10-11T19:16:49.014Z,18862.81
2022-10-11T19:19:20.873Z,18826.25
2022-10-11T19:21:49.434Z,18844.53
2022-10-11T19:24:18.624Z,18858.75
2022-10-11T19:26:47.450Z,18844.53
2022-10-11T19:29:19.688Z,18834.38
2022-10-11T19:31:50.868Z,18818.09
2022-10-11T19:34:21.808Z,18809.97
2022-10-11T19:36:52.689Z,18781.53
2022-10-11T19:39:22.483Z,18781.53
2022-10-11T19:41:50.525Z,18787.63
2022-10-11T19:44:18.952Z,18781.53
2022-10-11T19:46:52.140Z,18771.38
2022-10-11T19:49:24.747Z,18818.09
2022-10-11T19:51:53.684Z,18816.06
2022-10-11T19:54:21.959Z,18793.72
2022-10-11T19:56:50.010Z,18763.25
2022-10-11T19:59:18.254Z,18785.59
2022-10-11T20:01:52.043Z,18751.06
2022-10-11T20:04:50.457Z,18736.84
2022-10-11T20:07:11.457Z,18767.31
2022-10-11T20:09:39.502Z,18742.94
2022-10-11T20:12:08.203Z,18704.31
2022-10-11T20:14:36.216Z,18753.09
2022-10-11T20:17:04.229Z,18744.97
2022-10-11T20:19:33.547Z,18728.72
2022-10-11T20:22:02.360Z,18714.50
2022-10-11T20:24:33.556Z,18712.47
2022-10-11T20:27:03.306Z,18736.84
2022-10-11T20:29:31.530Z,18738.88
2022-10-11T20:31:59.912Z,18779.50
2022-10-11T20:34:28.637Z,18757.16
2022-10-11T20:36:57.957Z,18751.06
2022-10-11T20:39:26.066Z,18747.00
2022-10-11T20:41:54.159Z,18730.75
2022-10-11T20:44:22.205Z,18765.28
2022-10-11T20:46:50.187Z,18708.41
2022-10-11T20:49:19.798Z,18692.13
2022-10-11T20:51:47.856Z,18700.25
2022-10-11T20:54:18.061Z,18684.00
2022-10-11T20:56:46.107Z,18708.41
2022-10-11T20:59:14.141Z,18702.28
2022-10-11T21:01:43.975Z,18639.31
2022-10-11T21:04:19.603Z,18645.41
2022-10-11T21:06:49.665Z,18673.84
2022-10-11T21:09:19.180Z,18671.81
2022-10-11T21:11:47.331Z,18651.50
2022-10-11T21:14:15.428Z,18663.69
2022-10-11T21:16:43.722Z,18631.19
2022-10-11T21:19:15.929Z,18627.13
2022-10-11T21:21:45.688Z,18614.94
2022-10-11T21:24:17.801Z,18623.06
2022-10-11T21:26:45.860Z,18590.56
2022-10-11T21:29:14.038Z,18610.88
2022-10-11T21:31:41.981Z,18608.84
2022-10-11T21:34:10.009Z,18641.34
2022-10-11T21:36:38.051Z,18610.88
2022-10-11T21:39:06.054Z,18612.91
2022-10-11T21:41:35.625Z,18619.00
2022-10-11T21:44:04.388Z,18578.38
2022-10-11T21:47:06.025Z,18606.81
2022-10-11T21:49:21.811Z,18580.41
2022-10-11T21:51:50.201Z,18582.44
2022-10-11T21:54:18.778Z,18621.03
2022-10-11T21:56:48.539Z,18590.56
2022-10-11T21:59:16.752Z,18582.44
2022-10-11T22:01:45.178Z,18574.28
2022-10-11T22:04:13.377Z,18562.09
2022-10-11T22:06:41.429Z,18527.56
2022-10-11T22:09:10.232Z,18527.56
2022-10-11T22:11:38.648Z,18553.97
2022-10-11T22:14:08.478Z,18549.91
2022-10-11T22:16:36.567Z,18529.59
2022-10-11T22:19:05.221Z,18515.38
2022-10-11T22:21:33.423Z,18480.84
2022-10-11T22:24:01.483Z,18476.78
2022-10-11T22:26:32.191Z,18468.66
2022-10-11T22:29:00.949Z,18509.28
2022-10-11T22:31:31.180Z,18484.91
2022-10-11T22:34:01.247Z,18460.53
2022-10-11T22:36:30.665Z,18476.78
2022-10-11T22:38:59.150Z,18474.75
2022-10-11T22:41:27.514Z,18466.63
2022-10-11T22:43:55.501Z,18499.13
2022-10-11T22:46:23.487Z,18470.69
2022-10-11T22:48:52.908Z,18444.28
2022-10-11T22:51:21.197Z,18444.28
2022-10-11T22:53:49.240Z,18486.94
2022-10-11T22:56:17.256Z,18472.72
2022-10-11T22:58:45.427Z,18464.59
2022-10-11T23:01:15.591Z,18466.63
2022-10-11T23:03:44.215Z,18454.44
2022-10-11T23:06:13.595Z,18434.13
2022-10-11T23:08:41.855Z,18425.97
2022-10-11T23:11:10.960Z,18446.31
2022-10-11T23:13:38.931Z,18430.06
2022-10-11T23:16:08.416Z,18432.09
2022-10-11T23:18:36.755Z,18430.06
2022-10-11T23:21:06.734Z,18397.53
2022-10-11T23:23:36.572Z,18421.91
2022-10-11T23:26:07.760Z,18395.50
2022-10-11T23:28:36.300Z,18399.56
2022-10-11T23:31:09.248Z,18383.31
2022-10-11T23:33:37.696Z,18383.31
2022-10-11T23:36:06.957Z,18369.09
2022-10-11T23:38:36.253Z,18395.50
2022-10-11T23:41:04.284Z,18399.56
2022-10-11T23:43:32.241Z,18397.53
2022-10-11T23:46:00.579Z,18387.38
2022-10-11T23:48:28.610Z,18405.66
2022-10-11T23:50:56.581Z,18369.09
2022-10-11T23:53:24.691Z,18367.06
2022-10-11T23:55:54.139Z,18356.91
2022-10-11T23:58:22.450Z,18358.94
